sensor_id;sensor_type;location;lat;lon;timestamp;pressure;altitude;pressure_sealevel;temperature;humidity
68197;BME280;55019;49.382;11.358;2022-11-11T00:01:26;98082.47;;;3.98;97.74
68197;BME280;55019;49.382;11.358;2022-11-11T00:03:53;98076.00;;;4.07;97.55
68197;BME280;55019;49.382;11.358;2022-11-11T00:06:21;98080.03;;;4.11;97.20
68197;BME280;55019;49.382;11.358;2022-11-11T00:08:47;98084.81;;;4.17;97.53
68197;BME280;55019;49.382;11.358;2022-11-11T00:11:14;98089.63;;;4.07;97.51
68197;BME280;55019;49.382;11.358;2022-11-11T00:13:41;98100.59;;;4.23;97.71
68197;BME280;55019;49.382;11.358;2022-11-11T00:16:18;98078.47;;;4.08;97.55
68197;BME280;55019;49.382;11.358;2022-11-11T00:18:44;98097.88;;;4.26;96.70
68197;BME280;55019;49.382;11.358;2022-11-11T00:21:28;98078.13;;;4.14;95.97
68197;BME280;55019;49.382;11.358;2022-11-11T00:24:19;98096.75;;;4.16;96.10
68197;BME280;55019;49.382;11.358;2022-11-11T00:27:04;98094.59;;;4.24;96.30
68197;BME280;55019;49.382;11.358;2022-11-11T00:29:30;98087.63;;;4.12;96.10
68197;BME280;55019;49.382;11.358;2022-11-11T00:31:56;98085.63;;;4.17;95.84
68197;BME280;55019;49.382;11.358;2022-11-11T00:34:40;98073.16;;;3.97;95.61
68197;BME280;55019;49.382;11.358;2022-11-11T00:37:25;98070.69;;;3.80;96.51
68197;BME280;55019;49.382;11.358;2022-11-11T00:39:50;98072.59;;;3.92;96.58
68197;BME280;55019;49.382;11.358;2022-11-11T00:42:16;98049.56;;;3.92;96.97
68197;BME280;55019;49.382;11.358;2022-11-11T00:44:41;98053.94;;;3.90;97.56
68197;BME280;55019;49.382;11.358;2022-11-11T00:47:07;98056.75;;;3.86;97.57
68197;BME280;55019;49.382;11.358;2022-11-11T00:49:51;98044.75;;;3.72;97.95
68197;BME280;55019;49.382;11.358;2022-11-11T00:52:35;98057.59;;;3.86;97.12
68197;BME280;55019;49.382;11.358;2022-11-11T00:55:00;98064.34;;;3.87;96.97
68197;BME280;55019;49.382;11.358;2022-11-11T00:57:26;98063.63;;;3.85;97.12
68197;BME280;55019;49.382;11.358;2022-11-11T00:59:51;98078.22;;;3.83;97.86
68197;BME280;55019;49.382;11.358;2022-11-11T01:02:16;98084.22;;;3.82;98.16
68197;BME280;55019;49.382;11.358;2022-11-11T01:04:42;98070.06;;;3.77;97.71
68197;BME280;55019;49.382;11.358;2022-11-11T01:07:08;98076.91;;;3.76;97.33
68197;BME280;55019;49.382;11.358;2022-11-11T01:09:33;98063.88;;;3.65;97.86
68197;BME280;55019;49.382;11.358;2022-11-11T01:11:58;98078.97;;;3.85;97.20
68197;BME280;55019;49.382;11.358;2022-11-11T01:14:24;98052.19;;;3.61;96.95
68197;BME280;55019;49.382;11.358;2022-11-11T01:16:49;98070.19;;;3.60;97.75
68197;BME280;55019;49.382;11.358;2022-11-11T01:19:15;98075.44;;;3.57;98.44
68197;BME280;55019;49.382;11.358;2022-11-11T01:21:40;98093.88;;;3.77;98.25
68197;BME280;55019;49.382;11.358;2022-11-11T01:24:06;98091.06;;;3.82;97.76
68197;BME280;55019;49.382;11.358;2022-11-11T01:26:31;98077.41;;;3.67;97.71
68197;BME280;55019;49.382;11.358;2022-11-11T01:28:57;98082.34;;;3.70;97.92
68197;BME280;55019;49.382;11.358;2022-11-11T01:31:24;98101.31;;;3.82;97.54
68197;BME280;55019;49.382;11.358;2022-11-11T01:33:50;98091.31;;;3.77;98.03
68197;BME280;55019;49.382;11.358;2022-11-11T01:36:24;98077.41;;;3.67;98.74
68197;BME280;55019;49.382;11.358;2022-11-11T01:38:55;98095.69;;;3.75;98.35
68197;BME280;55019;49.382;11.358;2022-11-11T01:41:23;98086.09;;;3.65;98.35
68197;BME280;55019;49.382;11.358;2022-11-11T01:46:40;98090.75;;;3.72;98.29
68197;BME280;55019;49.382;11.358;2022-11-11T01:49:28;98097.16;;;3.79;99.01
68197;BME280;55019;49.382;11.358;2022-11-11T01:54:49;98089.09;;;3.71;98.61
68197;BME280;55019;49.382;11.358;2022-11-11T01:57:37;98105.09;;;3.90;98.18
68197;BME280;55019;49.382;11.358;2022-11-11T02:00:07;98084.16;;;3.68;97.88
68197;BME280;55019;49.382;11.358;2022-11-11T02:02:40;98098.81;;;3.80;97.72
68197;BME280;55019;49.382;11.358;2022-11-11T02:05:10;98084.84;;;3.72;97.97
68197;BME280;55019;49.382;11.358;2022-11-11T02:07:56;98093.06;;;3.77;98.40
68197;BME280;55019;49.382;11.358;2022-11-11T02:10:24;98094.31;;;3.70;97.90
68197;BME280;55019;49.382;11.358;2022-11-11T02:12:51;98099.78;;;3.64;98.17
68197;BME280;55019;49.382;11.358;2022-11-11T02:15:36;98099.50;;;3.68;98.62
68197;BME280;55019;49.382;11.358;2022-11-11T02:18:02;98077.56;;;3.64;97.97
68197;BME280;55019;49.382;11.358;2022-11-11T02:20:29;98088.22;;;3.57;98.31
68197;BME280;55019;49.382;11.358;2022-11-11T02:23:09;98081.72;;;3.51;98.50
68197;BME280;55019;49.382;11.358;2022-11-11T02:25:38;98106.44;;;3.66;98.46
68197;BME280;55019;49.382;11.358;2022-11-11T02:28:06;98092.91;;;3.64;98.40
68197;BME280;55019;49.382;11.358;2022-11-11T02:30:32;98079.41;;;3.62;98.57
68197;BME280;55019;49.382;11.358;2022-11-11T02:32:58;98084.19;;;3.53;98.39
68197;BME280;55019;49.382;11.358;2022-11-11T02:35:29;98087.00;;;3.48;98.41
68197;BME280;55019;49.382;11.358;2022-11-11T02:37:55;98088.22;;;3.57;98.12
68197;BME280;55019;49.382;11.358;2022-11-11T02:40:25;98089.47;;;3.50;97.98
68197;BME280;55019;49.382;11.358;2022-11-11T02:42:51;98082.53;;;3.52;97.62
68197;BME280;55019;49.382;11.358;2022-11-11T02:45:17;98085.59;;;3.58;97.11
68197;BME280;55019;49.382;11.358;2022-11-11T02:47:42;98100.97;;;3.72;96.90
68197;BME280;55019;49.382;11.358;2022-11-11T02:50:08;98093.06;;;3.77;96.15
68197;BME280;55019;49.382;11.358;2022-11-11T02:52:34;98098.34;;;3.74;96.05
68197;BME280;55019;49.382;11.358;2022-11-11T02:55:00;98087.97;;;3.61;96.19
68197;BME280;55019;49.382;11.358;2022-11-11T02:57:25;98063.59;;;3.40;96.43
68197;BME280;55019;49.382;11.358;2022-11-11T02:59:51;98091.59;;;3.57;96.73
68197;BME280;55019;49.382;11.358;2022-11-11T03:02:16;98100.84;;;3.60;97.11
68197;BME280;55019;49.382;11.358;2022-11-11T03:04:42;98100.59;;;3.64;97.24
68197;BME280;55019;49.382;11.358;2022-11-11T03:07:07;98102.34;;;3.64;96.92
68197;BME280;55019;49.382;11.358;2022-11-11T03:09:33;98104.88;;;3.64;96.39
68197;BME280;55019;49.382;11.358;2022-11-11T03:11:58;98100.19;;;3.56;96.09
68197;BME280;55019;49.382;11.358;2022-11-11T03:14:24;98095.06;;;3.56;95.20
68197;BME280;55019;49.382;11.358;2022-11-11T03:16:50;98091.03;;;3.52;95.63
68197;BME280;55019;49.382;11.358;2022-11-11T03:19:34;98112.16;;;3.40;96.13
68197;BME280;55019;49.382;11.358;2022-11-11T03:21:59;98115.13;;;3.48;95.99
68197;BME280;55019;49.382;11.358;2022-11-11T03:24:25;98102.50;;;3.45;96.33
68197;BME280;55019;49.382;11.358;2022-11-11T03:27:11;98117.59;;;3.34;96.69
68197;BME280;55019;49.382;11.358;2022-11-11T03:29:37;98122.53;;;3.37;97.29
68197;BME280;55019;49.382;11.358;2022-11-11T03:32:04;98140.59;;;3.34;98.01
68197;BME280;55019;49.382;11.358;2022-11-11T03:34:29;98137.53;;;3.28;98.07
68197;BME280;55019;49.382;11.358;2022-11-11T03:36:54;98138.16;;;3.31;97.78
68197;BME280;55019;49.382;11.358;2022-11-11T03:39:38;98129.19;;;3.40;97.35
68197;BME280;55019;49.382;11.358;2022-11-11T03:42:04;98130.28;;;3.36;97.13
68197;BME280;55019;49.382;11.358;2022-11-11T03:44:29;98127.06;;;3.32;97.89
68197;BME280;55019;49.382;11.358;2022-11-11T03:46:55;98111.13;;;3.27;97.75
68197;BME280;55019;49.382;11.358;2022-11-11T03:49:20;98110.75;;;3.35;97.77
68197;BME280;55019;49.382;11.358;2022-11-11T03:51:45;98099.84;;;3.31;97.16
68197;BME280;55019;49.382;11.358;2022-11-11T03:54:11;98098.53;;;3.24;96.86
68197;BME280;55019;49.382;11.358;2022-11-11T03:56:36;98116.09;;;3.30;97.18
68197;BME280;55019;49.382;11.358;2022-11-11T03:59:02;98119.16;;;3.37;96.54
68197;BME280;55019;49.382;11.358;2022-11-11T04:01:28;98121.28;;;3.29;96.08
68197;BME280;55019;49.382;11.358;2022-11-11T04:04:11;98118.06;;;3.25;96.38
68197;BME280;55019;49.382;11.358;2022-11-11T04:06:55;98109.06;;;3.03;98.40
68197;BME280;55019;49.382;11.358;2022-11-11T04:09:39;98128.94;;;3.29;98.14
68197;BME280;55019;49.382;11.358;2022-11-11T04:12:23;98120.13;;;3.19;97.48
68197;BME280;55019;49.382;11.358;2022-11-11T04:14:51;98108.91;;;3.21;98.11
68197;BME280;55019;49.382;11.358;2022-11-11T04:17:34;98105.84;;;3.30;97.37
68197;BME280;55019;49.382;11.358;2022-11-11T04:20:00;98094.00;;;3.45;96.90
68197;BME280;55019;49.382;11.358;2022-11-11T04:22:44;98105.84;;;3.30;97.01
68197;BME280;55019;49.382;11.358;2022-11-11T04:25:10;98089.81;;;3.13;97.93
68197;BME280;55019;49.382;11.358;2022-11-11T04:27:57;98107.44;;;3.17;98.43
68197;BME280;55019;49.382;11.358;2022-11-11T04:30:42;98110.72;;;3.19;98.98
68197;BME280;55019;49.382;11.358;2022-11-11T04:33:08;98123.75;;;3.30;98.46
68197;BME280;55019;49.382;11.358;2022-11-11T04:35:34;98113.03;;;3.08;99.13
68197;BME280;55019;49.382;11.358;2022-11-11T04:38:00;98122.59;;;3.20;99.40
68197;BME280;55019;49.382;11.358;2022-11-11T04:40:43;98125.88;;;3.22;99.89
68197;BME280;55019;49.382;11.358;2022-11-11T04:43:28;98124.91;;;3.25;100.00
68197;BME280;55019;49.382;11.358;2022-11-11T04:45:57;98125.88;;;3.22;99.94
68197;BME280;55019;49.382;11.358;2022-11-11T04:48:23;98137.16;;;3.18;99.96
68197;BME280;55019;49.382;11.358;2022-11-11T04:50:48;98143.44;;;3.28;100.00
68197;BME280;55019;49.382;11.358;2022-11-11T04:53:14;98148.47;;;3.30;100.00
68197;BME280;55019;49.382;11.358;2022-11-11T04:55:40;98152.63;;;3.32;100.00
68197;BME280;55019;49.382;11.358;2022-11-11T04:58:26;98143.88;;;3.36;100.00
68197;BME280;55019;49.382;11.358;2022-11-11T05:00:52;98146.16;;;3.25;99.79
68197;BME280;55019;49.382;11.358;2022-11-11T05:03:18;98147.06;;;3.24;100.00
68197;BME280;55019;49.382;11.358;2022-11-11T05:05:52;98157.84;;;3.29;100.00
68197;BME280;55019;49.382;11.358;2022-11-11T05:08:56;98154.25;;;3.33;99.90
68197;BME280;55019;49.382;11.358;2022-11-11T05:11:28;98145.34;;;3.25;99.30
68197;BME280;55019;49.382;11.358;2022-11-11T05:13:55;98156.53;;;3.22;99.44
68197;BME280;55019;49.382;11.358;2022-11-11T05:16:49;98160.34;;;3.31;99.63
68197;BME280;55019;49.382;11.358;2022-11-11T05:19:33;98162.66;;;3.35;99.62
68197;BME280;55019;49.382;11.358;2022-11-11T05:22:33;98162.41;;;3.40;99.44
68197;BME280;55019;49.382;11.358;2022-11-11T05:25:00;98153.44;;;3.33;99.17
68197;BME280;55019;49.382;11.358;2022-11-11T05:27:44;98164.47;;;3.33;99.07
68197;BME280;55019;49.382;11.358;2022-11-11T05:30:13;98158.31;;;3.37;99.01
68197;BME280;55019;49.382;11.358;2022-11-11T05:32:39;98168.81;;;3.31;98.92
68197;BME280;55019;49.382;11.358;2022-11-11T05:35:08;98168.50;;;3.22;99.41
68197;BME280;55019;49.382;11.358;2022-11-11T05:37:34;98173.50;;;3.23;99.42
68197;BME280;55019;49.382;11.358;2022-11-11T05:39:59;98178.03;;;3.18;99.49
68197;BME280;55019;49.382;11.358;2022-11-11T05:42:25;98183.56;;;3.26;99.93
68197;BME280;55019;49.382;11.358;2022-11-11T05:44:51;98174.34;;;3.24;100.00
68197;BME280;55019;49.382;11.358;2022-11-11T05:47:16;98177.13;;;3.19;99.97
68197;BME280;55019;49.382;11.358;2022-11-11T05:49:42;98177.66;;;3.26;99.88
68197;BME280;55019;49.382;11.358;2022-11-11T05:52:09;98188.03;;;3.23;99.77
68197;BME280;55019;49.382;11.358;2022-11-11T05:54:34;98194.03;;;3.22;99.89
68197;BME280;55019;49.382;11.358;2022-11-11T05:57:00;98194.38;;;3.31;99.33
68197;BME280;55019;49.382;11.358;2022-11-11T05:59:25;98183.16;;;3.18;99.37
68197;BME280;55019;49.382;11.358;2022-11-11T06:01:51;98207.03;;;3.17;99.36
68197;BME280;55019;49.382;11.358;2022-11-11T06:04:16;98213.19;;;3.13;99.64
68197;BME280;55019;49.382;11.358;2022-11-11T06:06:42;98217.25;;;3.17;99.67
68197;BME280;55019;49.382;11.358;2022-11-11T06:09:07;98205.97;;;3.21;99.70
68197;BME280;55019;49.382;11.358;2022-11-11T06:11:33;98220.16;;;3.27;98.57
68197;BME280;55019;49.382;11.358;2022-11-11T06:13:58;98229.53;;;3.26;99.21
68197;BME280;55019;49.382;11.358;2022-11-11T06:16:24;98224.16;;;3.15;98.73
68197;BME280;55019;49.382;11.358;2022-11-11T06:18:50;98235.97;;;3.18;99.73
68197;BME280;55019;49.382;11.358;2022-11-11T06:21:16;98217.13;;;3.03;99.96
68197;BME280;55019;49.382;11.358;2022-11-11T06:23:41;98236.41;;;3.26;99.04
68197;BME280;55019;49.382;11.358;2022-11-11T06:26:09;98218.84;;;3.20;99.12
68197;BME280;55019;49.382;11.358;2022-11-11T06:31:12;98234.66;;;3.26;99.76
68197;BME280;55019;49.382;11.358;2022-11-11T06:33:39;98224.91;;;3.17;99.61
68197;BME280;55019;49.382;11.358;2022-11-11T06:36:06;98232.84;;;3.28;99.49
68197;BME280;55019;49.382;11.358;2022-11-11T06:38:31;98236.13;;;3.30;99.50
68197;BME280;55019;49.382;11.358;2022-11-11T06:40:57;98235.41;;;3.28;100.00
68197;BME280;55019;49.382;11.358;2022-11-11T06:43:23;98239.16;;;3.38;99.62
68197;BME280;55019;49.382;11.358;2022-11-11T06:45:50;98229.19;;;3.49;99.26
68197;BME280;55019;49.382;11.358;2022-11-11T06:48:16;98215.09;;;3.42;99.41
68197;BME280;55019;49.382;11.358;2022-11-11T06:50:41;98216.09;;;3.55;98.93
68197;BME280;55019;49.382;11.358;2022-11-11T06:53:09;98218.09;;;3.66;99.03
68197;BME280;55019;49.382;11.358;2022-11-11T06:55:35;98184.34;;;3.59;98.47
68197;BME280;55019;49.382;11.358;2022-11-11T06:58:12;98203.22;;;3.72;98.39
68197;BME280;55019;49.382;11.358;2022-11-11T07:00:38;98217.44;;;3.93;98.22
68197;BME280;55019;49.382;11.358;2022-11-11T07:03:05;98223.53;;;4.06;98.80
68197;BME280;55019;49.382;11.358;2022-11-11T07:05:34;98219.72;;;4.13;98.74
68197;BME280;55019;49.382;11.358;2022-11-11T07:08:01;98204.19;;;4.16;98.13
68197;BME280;55019;49.382;11.358;2022-11-11T07:10:28;98220.19;;;4.35;97.54
68197;BME280;55019;49.382;11.358;2022-11-11T07:12:54;98206.97;;;4.27;97.27
68197;BME280;55019;49.382;11.358;2022-11-11T07:15:19;98209.34;;;4.45;96.48
68197;BME280;55019;49.382;11.358;2022-11-11T07:17:45;98230.03;;;4.56;96.07
68197;BME280;55019;49.382;11.358;2022-11-11T07:20:10;98210.56;;;4.54;95.51
68197;BME280;55019;49.382;11.358;2022-11-11T07:22:36;98195.56;;;4.48;95.69
68197;BME280;55019;49.382;11.358;2022-11-11T07:25:02;98202.22;;;4.50;95.62
68197;BME280;55019;49.382;11.358;2022-11-11T07:27:28;98226.50;;;4.73;95.46
68197;BME280;55019;49.382;11.358;2022-11-11T07:29:53;98222.59;;;4.81;94.93
68197;BME280;55019;49.382;11.358;2022-11-11T07:32:22;98211.19;;;4.87;94.48
68197;BME280;55019;49.382;11.358;2022-11-11T07:34:47;98235.28;;;5.54;93.03
68197;BME280;55019;49.382;11.358;2022-11-11T07:37:14;98235.59;;;6.04;90.44
68197;BME280;55019;49.382;11.358;2022-11-11T07:39:40;98227.41;;;6.64;87.10
68197;BME280;55019;49.382;11.358;2022-11-11T07:42:05;98224.59;;;7.06;84.85
68197;BME280;55019;49.382;11.358;2022-11-11T07:44:32;98219.97;;;7.36;83.47
68197;BME280;55019;49.382;11.358;2022-11-11T07:46:59;98235.13;;;8.25;81.07
68197;BME280;55019;49.382;11.358;2022-11-11T07:49:24;98246.97;;;9.19;77.81
68197;BME280;55019;49.382;11.358;2022-11-11T07:51:50;98237.41;;;10.51;73.12
68197;BME280;55019;49.382;11.358;2022-11-11T07:54:18;98230.47;;;11.74;67.49
68197;BME280;55019;49.382;11.358;2022-11-11T07:56:50;98210.25;;;11.98;63.58
68197;BME280;55019;49.382;11.358;2022-11-11T07:59:42;98200.81;;;13.03;61.57
68197;BME280;55019;49.382;11.358;2022-11-11T08:02:17;98224.13;;;14.48;56.66
68197;BME280;55019;49.382;11.358;2022-11-11T08:04:42;98214.06;;;15.82;53.68
68197;BME280;55019;49.382;11.358;2022-11-11T08:07:08;98227.44;;;17.02;49.45
68197;BME280;55019;49.382;11.358;2022-11-11T08:09:43;98230.81;;;17.66;47.77
68197;BME280;55019;49.382;11.358;2022-11-11T08:15:32;98206.81;;;17.54;47.24
68197;BME280;55019;49.382;11.358;2022-11-11T08:18:07;98219.03;;;16.01;51.11
68197;BME280;55019;49.382;11.358;2022-11-11T08:20:42;98214.03;;;15.41;53.21
68197;BME280;55019;49.382;11.358;2022-11-11T08:23:18;98216.72;;;15.90;52.88
68197;BME280;55019;49.382;11.358;2022-11-11T08:25:54;98221.22;;;16.95;52.58
68197;BME280;55019;49.382;11.358;2022-11-11T08:28:19;98247.97;;;17.68;48.75
68197;BME280;55019;49.382;11.358;2022-11-11T08:30:45;98219.97;;;17.85;47.51
68197;BME280;55019;49.382;11.358;2022-11-11T08:33:13;98220.50;;;18.19;47.30
68197;BME280;55019;49.382;11.358;2022-11-11T08:35:41;98215.44;;;19.23;45.09
68197;BME280;55019;49.382;11.358;2022-11-11T08:38:07;98235.72;;;20.44;42.75
68197;BME280;55019;49.382;11.358;2022-11-11T08:40:33;98228.63;;;21.71;39.91
68197;BME280;55019;49.382;11.358;2022-11-11T08:42:58;98228.78;;;21.14;40.66
68197;BME280;55019;49.382;11.358;2022-11-11T08:45:30;98229.50;;;22.65;38.72
68197;BME280;55019;49.382;11.358;2022-11-11T08:47:58;98243.44;;;22.12;38.94
68197;BME280;55019;49.382;11.358;2022-11-11T08:50:24;98247.69;;;22.47;38.64
68197;BME280;55019;49.382;11.358;2022-11-11T08:52:59;98214.31;;;22.13;38.78
68197;BME280;55019;49.382;11.358;2022-11-11T08:55:27;98222.59;;;22.64;37.56
68197;BME280;55019;49.382;11.358;2022-11-11T08:57:59;98239.63;;;24.30;34.49
68197;BME280;55019;49.382;11.358;2022-11-11T09:00:26;98216.19;;;23.70;35.21
68197;BME280;55019;49.382;11.358;2022-11-11T09:02:51;98235.16;;;22.62;38.55
68197;BME280;55019;49.382;11.358;2022-11-11T09:05:17;98238.91;;;21.93;39.57
68197;BME280;55019;49.382;11.358;2022-11-11T09:07:42;98248.88;;;20.65;42.07
68197;BME280;55019;49.382;11.358;2022-11-11T09:10:08;98244.59;;;19.71;44.92
68197;BME280;55019;49.382;11.358;2022-11-11T09:12:33;98253.91;;;18.09;48.44
68197;BME280;55019;49.382;11.358;2022-11-11T09:14:59;98243.25;;;17.56;50.10
68197;BME280;55019;49.382;11.358;2022-11-11T09:17:26;98250.25;;;16.68;53.09
68197;BME280;55019;49.382;11.358;2022-11-11T09:19:52;98252.03;;;16.18;54.48
68197;BME280;55019;49.382;11.358;2022-11-11T09:22:18;98249.13;;;15.88;55.69
68197;BME280;55019;49.382;11.358;2022-11-11T09:24:46;98257.47;;;15.40;56.94
68197;BME280;55019;49.382;11.358;2022-11-11T09:27:11;98257.41;;;15.83;55.88
68197;BME280;55019;49.382;11.358;2022-11-11T09:29:37;98250.25;;;16.26;54.56
68197;BME280;55019;49.382;11.358;2022-11-11T09:32:02;98252.91;;;15.93;55.87
68197;BME280;55019;49.382;11.358;2022-11-11T09:34:28;98248.81;;;16.89;53.39
68197;BME280;55019;49.382;11.358;2022-11-11T09:36:54;98280.19;;;17.53;51.75
68197;BME280;55019;49.382;11.358;2022-11-11T09:39:20;98283.34;;;18.03;49.57
68197;BME280;55019;49.382;11.358;2022-11-11T09:42:04;98281.66;;;19.54;46.42
68197;BME280;55019;49.382;11.358;2022-11-11T09:44:42;98283.78;;;21.85;41.62
68197;BME280;55019;49.382;11.358;2022-11-11T09:50:15;98261.44;;;23.02;38.32
68197;BME280;55019;49.382;11.358;2022-11-11T09:55:24;98260.28;;;22.51;38.22
68197;BME280;55019;49.382;11.358;2022-11-11T09:57:52;98283.47;;;22.88;39.13
68197;BME280;55019;49.382;11.358;2022-11-11T10:00:36;98262.66;;;23.06;38.23
68197;BME280;55019;49.382;11.358;2022-11-11T10:03:33;98277.91;;;23.24;38.67
68197;BME280;55019;49.382;11.358;2022-11-11T10:09:36;98263.31;;;23.60;38.56
68197;BME280;55019;49.382;11.358;2022-11-11T10:12:41;98258.81;;;23.99;36.72
68197;BME280;55019;49.382;11.358;2022-11-11T10:15:28;98250.28;;;23.78;36.89
68197;BME280;55019;49.382;11.358;2022-11-11T10:20:56;98263.41;;;25.11;34.87
68197;BME280;55019;49.382;11.358;2022-11-11T10:23:31;98260.06;;;23.45;37.51
68197;BME280;55019;49.382;11.358;2022-11-11T10:26:15;98267.41;;;22.23;39.64
68197;BME280;55019;49.382;11.358;2022-11-11T10:28:44;98259.44;;;22.51;39.69
68197;BME280;55019;49.382;11.358;2022-11-11T10:31:21;98264.28;;;21.52;42.33
68197;BME280;55019;49.382;11.358;2022-11-11T10:36:59;98267.13;;;22.05;40.72
68197;BME280;55019;49.382;11.358;2022-11-11T10:42:53;98265.16;;;22.54;42.01
68197;BME280;55019;49.382;11.358;2022-11-11T10:46:12;98248.50;;;24.48;36.33
68197;BME280;55019;49.382;11.358;2022-11-11T10:49:37;98241.81;;;25.69;34.12
68197;BME280;55019;49.382;11.358;2022-11-11T10:52:18;98256.34;;;25.05;35.20
68197;BME280;55019;49.382;11.358;2022-11-11T10:55:17;98251.53;;;23.62;37.56
68197;BME280;55019;49.382;11.358;2022-11-11T10:57:53;98263.16;;;25.25;35.50
68197;BME280;55019;49.382;11.358;2022-11-11T11:00:22;98246.09;;;24.40;35.68
68197;BME280;55019;49.382;11.358;2022-11-11T11:03:03;98237.84;;;26.86;32.55
68197;BME280;55019;49.382;11.358;2022-11-11T11:08:26;98234.19;;;27.39;29.23
68197;BME280;55019;49.382;11.358;2022-11-11T11:10:57;98258.22;;;26.20;31.55
68197;BME280;55019;49.382;11.358;2022-11-11T11:16:51;98231.44;;;27.57;29.75
68197;BME280;55019;49.382;11.358;2022-11-11T11:19:30;98225.59;;;27.14;30.98
68197;BME280;55019;49.382;11.358;2022-11-11T11:22:02;98224.59;;;27.50;31.23
68197;BME280;55019;49.382;11.358;2022-11-11T11:24:31;98230.66;;;26.75;31.23
68197;BME280;55019;49.382;11.358;2022-11-11T11:26:59;98239.91;;;26.84;30.22
68197;BME280;55019;49.382;11.358;2022-11-11T11:29:26;98246.28;;;28.27;28.71
68197;BME280;55019;49.382;11.358;2022-11-11T11:31:53;98240.66;;;28.35;28.02
68197;BME280;55019;49.382;11.358;2022-11-11T11:34:18;98230.41;;;29.93;26.70
68197;BME280;55019;49.382;11.358;2022-11-11T11:36:58;98216.09;;;28.56;27.67
68197;BME280;55019;49.382;11.358;2022-11-11T11:39:32;98246.41;;;27.52;29.99
68197;BME280;55019;49.382;11.358;2022-11-11T11:41:58;98235.34;;;27.66;28.60
68197;BME280;55019;49.382;11.358;2022-11-11T11:44:35;98227.28;;;29.14;26.46
68197;BME280;55019;49.382;11.358;2022-11-11T11:59:03;98243.31;;;21.86;37.08
68197;BME280;55019;49.382;11.358;2022-11-11T12:01:55;98247.41;;;21.40;38.50
68197;BME280;55019;49.382;11.358;2022-11-11T12:04:53;98251.34;;;20.88;39.60
68197;BME280;55019;49.382;11.358;2022-11-11T12:07:43;98254.47;;;19.84;42.00
68197;BME280;55019;49.382;11.358;2022-11-11T12:10:38;98247.19;;;19.57;41.65
68197;BME280;55019;49.382;11.358;2022-11-11T12:16:19;98245.97;;;18.63;44.47
68197;BME280;55019;49.382;11.358;2022-11-11T12:19:03;98246.19;;;18.15;46.13
68197;BME280;55019;49.382;11.358;2022-11-11T12:21:51;98243.38;;;18.17;46.97
68197;BME280;55019;49.382;11.358;2022-11-11T12:24:41;98225.75;;;17.72;47.74
68197;BME280;55019;49.382;11.358;2022-11-11T12:32:50;98217.22;;;16.35;52.34
68197;BME280;55019;49.382;11.358;2022-11-11T12:40:57;98231.53;;;19.12;48.33
68197;BME280;55019;49.382;11.358;2022-11-11T12:43:28;98230.88;;;19.10;46.51
68197;BME280;55019;49.382;11.358;2022-11-11T13:00:13;98241.50;;;18.03;48.70
68197;BME280;55019;49.382;11.358;2022-11-11T13:03:03;98237.16;;;18.26;48.86
68197;BME280;55019;49.382;11.358;2022-11-11T13:16:27;98229.34;;;18.48;49.69
68197;BME280;55019;49.382;11.358;2022-11-11T13:19:05;98241.56;;;19.31;47.12
68197;BME280;55019;49.382;11.358;2022-11-11T13:22:17;98237.84;;;20.06;44.07
68197;BME280;55019;49.382;11.358;2022-11-11T13:24:47;98222.91;;;20.21;44.24
68197;BME280;55019;49.382;11.358;2022-11-11T13:27:19;98241.91;;;19.05;46.79
68197;BME280;55019;49.382;11.358;2022-11-11T13:30:19;98241.38;;;17.88;50.25
68197;BME280;55019;49.382;11.358;2022-11-11T13:32:57;98228.34;;;16.53;54.11
68197;BME280;55019;49.382;11.358;2022-11-11T13:35:32;98238.25;;;16.00;55.39
68197;BME280;55019;49.382;11.358;2022-11-11T13:38:00;98236.59;;;14.97;57.32
68197;BME280;55019;49.382;11.358;2022-11-11T13:43:02;98231.09;;;14.31;60.69
68197;BME280;55019;49.382;11.358;2022-11-11T13:45:32;98217.63;;;14.08;60.11
68197;BME280;55019;49.382;11.358;2022-11-11T13:47:59;98241.56;;;13.75;62.62
68197;BME280;55019;49.382;11.358;2022-11-11T13:50:29;98229.63;;;13.92;61.23
68197;BME280;55019;49.382;11.358;2022-11-11T13:55:31;98234.50;;;13.68;61.76
68197;BME280;55019;49.382;11.358;2022-11-11T13:57:59;98222.00;;;13.44;63.21
68197;BME280;55019;49.382;11.358;2022-11-11T14:00:36;98219.72;;;13.22;65.00
68197;BME280;55019;49.382;11.358;2022-11-11T14:05:46;98219.44;;;13.35;65.79
68197;BME280;55019;49.382;11.358;2022-11-11T14:24:07;98224.69;;;12.97;68.11
68197;BME280;55019;49.382;11.358;2022-11-11T14:26:33;98226.44;;;12.87;68.78
68197;BME280;55019;49.382;11.358;2022-11-11T14:29:02;98240.25;;;12.97;68.70
68197;BME280;55019;49.382;11.358;2022-11-11T14:32:02;98239.72;;;13.03;68.64
68197;BME280;55019;49.382;11.358;2022-11-11T14:39:52;98227.25;;;12.69;71.10
68197;BME280;55019;49.382;11.358;2022-11-11T14:47:53;98239.56;;;12.57;71.34
68197;BME280;55019;49.382;11.358;2022-11-11T14:52:53;98221.09;;;12.22;72.99
68197;BME280;55019;49.382;11.358;2022-11-11T14:55:29;98225.44;;;12.12;74.59
68197;BME280;55019;49.382;11.358;2022-11-11T15:00:42;98233.41;;;11.90;75.77
68197;BME280;55019;49.382;11.358;2022-11-11T15:03:12;98213.53;;;11.61;77.45
68197;BME280;55019;49.382;11.358;2022-11-11T15:08:21;98239.94;;;11.55;77.37
68197;BME280;55019;49.382;11.358;2022-11-11T15:11:12;98238.97;;;11.36;78.11
68197;BME280;55019;49.382;11.358;2022-11-11T15:16:48;98239.63;;;11.08;79.00
68197;BME280;55019;49.382;11.358;2022-11-11T15:24:49;98223.81;;;10.70;80.96
68197;BME280;55019;49.382;11.358;2022-11-11T15:27:26;98226.31;;;10.60;81.88
68197;BME280;55019;49.382;11.358;2022-11-11T15:30:04;98204.34;;;10.34;82.04
68197;BME280;55019;49.382;11.358;2022-11-11T15:33:03;98230.53;;;10.30;83.38
68197;BME280;55019;49.382;11.358;2022-11-11T15:35:45;98226.34;;;10.18;83.58
68197;BME280;55019;49.382;11.358;2022-11-11T15:38:16;98238.09;;;10.11;83.89